sensor_id;sensor_type;location;lat;lon;timestamp;pressure;altitude;pressure_sealevel;temperature;humidity
79463;BME280;68931;47.286;18.756;2023-05-16T00:00:21;100186.91;;;13.13;91.49
79463;BME280;68931;47.286;18.756;2023-05-16T00:00:54;100178.22;;;13.11;91.59
79463;BME280;68931;47.286;18.756;2023-05-16T00:01:27;100195.44;;;13.17;91.68
79463;BME280;68931;47.286;18.756;2023-05-16T00:01:59;100185.09;;;13.14;91.61
79463;BME280;68931;47.286;18.756;2023-05-16T00:02:30;100184.03;;;13.16;91.84
79463;BME280;68931;47.286;18.756;2023-05-16T00:03:04;100185.94;;;13.14;91.74
79463;BME280;68931;47.286;18.756;2023-05-16T00:03:35;100184.34;;;13.12;91.67
79463;BME280;68931;47.286;18.756;2023-05-16T00:04:09;100175.84;;;13.08;91.64
79463;BME280;68931;47.286;18.756;2023-05-16T00:04:44;100181.53;;;13.15;91.65
79463;BME280;68931;47.286;18.756;2023-05-16T00:05:15;100189.53;;;13.13;91.68
79463;BME280;68931;47.286;18.756;2023-05-16T00:05:47;100171.50;;;13.07;91.78
79463;BME280;68931;47.286;18.756;2023-05-16T00:06:17;100183.63;;;13.10;91.60
79463;BME280;68931;47.286;18.756;2023-05-16T00:06:48;100175.72;;;13.10;91.39
79463;BME280;68931;47.286;18.756;2023-05-16T00:07:18;100160.47;;;13.02;91.33
79463;BME280;68931;47.286;18.756;2023-05-16T00:07:49;100184.56;;;13.09;91.17
79463;BME280;68931;47.286;18.756;2023-05-16T00:08:20;100170.16;;;13.02;90.77
79463;BME280;68931;47.286;18.756;2023-05-16T00:08:50;100170.16;;;13.02;91.12
79463;BME280;68931;47.286;18.756;2023-05-16T00:09:21;100173.53;;;13.04;90.83
79463;BME280;68931;47.286;18.756;2023-05-16T00:09:52;100161.31;;;13.03;90.68
79463;BME280;68931;47.286;18.756;2023-05-16T00:10:22;100160.47;;;13.02;90.77
79463;BME280;68931;47.286;18.756;2023-05-16T00:10:53;100172.47;;;13.06;90.97
79463;BME280;68931;47.286;18.756;2023-05-16T00:11:24;100162.97;;;13.04;90.99
79463;BME280;68931;47.286;18.756;2023-05-16T00:11:54;100165.41;;;13.07;90.89
79463;BME280;68931;47.286;18.756;2023-05-16T00:12:25;100166.34;;;13.06;90.65
79463;BME280;68931;47.286;18.756;2023-05-16T00:12:57;100169.72;;;13.08;90.76
79463;BME280;68931;47.286;18.756;2023-05-16T00:13:28;100161.09;;;13.06;90.58
79463;BME280;68931;47.286;18.756;2023-05-16T00:13:59;100162.66;;;13.08;90.68
79463;BME280;68931;47.286;18.756;2023-05-16T00:14:30;100149.72;;;13.05;90.83
79463;BME280;68931;47.286;18.756;2023-05-16T00:15:02;100144.53;;;12.93;90.66
79463;BME280;68931;47.286;18.756;2023-05-16T00:15:34;100164.47;;;13.08;90.75
79463;BME280;68931;47.286;18.756;2023-05-16T00:16:05;100164.56;;;13.06;91.16
79463;BME280;68931;47.286;18.756;2023-05-16T00:16:36;100164.47;;;13.08;91.24
79463;BME280;68931;47.286;18.756;2023-05-16T00:17:06;100178.22;;;13.11;91.24
79463;BME280;68931;47.286;18.756;2023-05-16T00:17:41;100168.53;;;13.12;91.01
79463;BME280;68931;47.286;18.756;2023-05-16T00:18:16;100171.31;;;13.10;91.13
79463;BME280;68931;47.286;18.756;2023-05-16T00:18:47;100167.19;;;13.06;91.06
79463;BME280;68931;47.286;18.756;2023-05-16T00:19:19;100181.94;;;13.09;91.07
79463;BME280;68931;47.286;18.756;2023-05-16T00:19:49;100177.72;;;13.06;91.05
79463;BME280;68931;47.286;18.756;2023-05-16T00:20:27;100179.41;;;13.07;91.07
79463;BME280;68931;47.286;18.756;2023-05-16T00:20:58;100183.09;;;13.05;90.73
79463;BME280;68931;47.286;18.756;2023-05-16T00:21:29;100177.25;;;13.01;91.48
79463;BME280;68931;47.286;18.756;2023-05-16T00:22:00;100179.03;;;13.01;91.08
79463;BME280;68931;47.286;18.756;2023-05-16T00:22:31;100179.03;;;13.01;91.01
79463;BME280;68931;47.286;18.756;2023-05-16T00:23:02;100183.00;;;13.06;90.92
79463;BME280;68931;47.286;18.756;2023-05-16T00:23:33;100181.31;;;13.05;91.05
79463;BME280;68931;47.286;18.756;2023-05-16T00:24:04;100164.59;;;12.94;91.15
79463;BME280;68931;47.286;18.756;2023-05-16T00:24:35;100175.56;;;13.00;91.01
79463;BME280;68931;47.286;18.756;2023-05-16T00:25:05;100184.41;;;12.99;91.10
79463;BME280;68931;47.286;18.756;2023-05-16T00:25:38;100185.81;;;12.92;90.91
79463;BME280;68931;47.286;18.756;2023-05-16T00:26:08;100179.44;;;12.95;91.46
79463;BME280;68931;47.286;18.756;2023-05-16T00:26:39;100182.63;;;13.00;91.23
79463;BME280;68931;47.286;18.756;2023-05-16T00:27:10;100183.56;;;12.99;91.22
79463;BME280;68931;47.286;18.756;2023-05-16T00:27:41;100186.41;;;12.96;90.91
79463;BME280;68931;47.286;18.756;2023-05-16T00:28:11;100187.34;;;12.95;91.42
79463;BME280;68931;47.286;18.756;2023-05-16T00:28:42;100185.91;;;12.91;91.35
79463;BME280;68931;47.286;18.756;2023-05-16T00:29:13;100179.91;;;12.89;91.59
79463;BME280;68931;47.286;18.756;2023-05-16T00:29:44;100183.78;;;12.96;91.61
79463;BME280;68931;47.286;18.756;2023-05-16T00:30:15;100181.59;;;12.90;91.23
79463;BME280;68931;47.286;18.756;2023-05-16T00:30:45;100192.84;;;12.92;91.37
79463;BME280;68931;47.286;18.756;2023-05-16T00:31:16;100183.47;;;12.88;91.36
79463;BME280;68931;47.286;18.756;2023-05-16T00:31:53;100192.84;;;12.92;91.99
79463;BME280;68931;47.286;18.756;2023-05-16T00:32:23;100189.28;;;12.93;91.37
79463;BME280;68931;47.286;18.756;2023-05-16T00:32:54;100189.16;;;12.94;91.55
79463;BME280;68931;47.286;18.756;2023-05-16T00:33:27;100180.53;;;12.92;91.73
79463;BME280;68931;47.286;18.756;2023-05-16T00:33:58;100189.88;;;12.96;91.76
79463;BME280;68931;47.286;18.756;2023-05-16T00:34:28;100181.38;;;12.93;91.84
79463;BME280;68931;47.286;18.756;2023-05-16T00:34:59;100177.28;;;12.89;91.22
79463;BME280;68931;47.286;18.756;2023-05-16T00:35:30;100187.88;;;13.00;91.70
79463;BME280;68931;47.286;18.756;2023-05-16T00:36:01;100181.25;;;12.94;91.71
79463;BME280;68931;47.286;18.756;2023-05-16T00:36:32;100185.44;;;12.97;91.32
79463;BME280;68931;47.286;18.756;2023-05-16T00:37:05;100188.81;;;12.99;91.63
79463;BME280;68931;47.286;18.756;2023-05-16T00:37:38;100186.41;;;12.96;91.97
79463;BME280;68931;47.286;18.756;2023-05-16T00:38:09;100170.44;;;12.86;91.78
79463;BME280;68931;47.286;18.756;2023-05-16T00:38:40;100185.44;;;12.97;91.82
79463;BME280;68931;47.286;18.756;2023-05-16T00:39:10;100188.94;;;12.97;91.68
79463;BME280;68931;47.286;18.756;2023-05-16T00:39:41;100185.56;;;12.95;91.66
79463;BME280;68931;47.286;18.756;2023-05-16T00:40:11;100197.56;;;12.99;91.59
79463;BME280;68931;47.286;18.756;2023-05-16T00:40:42;100189.16;;;12.94;91.35
79463;BME280;68931;47.286;18.756;2023-05-16T00:41:13;100199.34;;;12.99;91.46
79463;BME280;68931;47.286;18.756;2023-05-16T00:41:45;100167.50;;;12.78;91.31
79463;BME280;68931;47.286;18.756;2023-05-16T00:42:18;100188.31;;;12.94;91.11
79463;BME280;68931;47.286;18.756;2023-05-16T00:42:52;100195.03;;;12.98;90.82
79463;BME280;68931;47.286;18.756;2023-05-16T00:43:22;100200.19;;;12.99;91.09
79463;BME280;68931;47.286;18.756;2023-05-16T00:43:53;100201.16;;;12.98;91.56
79463;BME280;68931;47.286;18.756;2023-05-16T00:44:24;100191.91;;;12.93;91.44
79463;BME280;68931;47.286;18.756;2023-05-16T00:44:54;100165.50;;;12.81;91.38
79463;BME280;68931;47.286;18.756;2023-05-16T00:45:25;100202.84;;;12.99;91.51
79463;BME280;68931;47.286;18.756;2023-05-16T00:45:56;100186.50;;;12.94;91.38
79463;BME280;68931;47.286;18.756;2023-05-16T00:46:27;100184.63;;;12.96;91.44
79463;BME280;68931;47.286;18.756;2023-05-16T00:46:57;100189.97;;;12.95;91.43
79463;BME280;68931;47.286;18.756;2023-05-16T00:47:29;100181.13;;;12.96;91.26
79463;BME280;68931;47.286;18.756;2023-05-16T00:48:00;100190.50;;;13.00;91.68
79463;BME280;68931;47.286;18.756;2023-05-16T00:48:31;100194.00;;;13.00;91.70
79463;BME280;68931;47.286;18.756;2023-05-16T00:49:03;100192.63;;;12.95;91.65
79463;BME280;68931;47.286;18.756;2023-05-16T00:49:34;100196.72;;;12.99;91.53
79463;BME280;68931;47.286;18.756;2023-05-16T00:50:08;100203.69;;;13.00;91.50
79463;BME280;68931;47.286;18.756;2023-05-16T00:50:42;100196.00;;;12.97;91.41
79463;BME280;68931;47.286;18.756;2023-05-16T00:51:13;100195.16;;;12.96;91.33
79463;BME280;68931;47.286;18.756;2023-05-16T00:51:43;100195.78;;;13.00;91.52
79463;BME280;68931;47.286;18.756;2023-05-16T00:52:14;100195.16;;;12.96;91.58
79463;BME280;68931;47.286;18.756;2023-05-16T00:52:46;100203.16;;;12.95;91.49
79463;BME280;68931;47.286;18.756;2023-05-16T00:53:17;100196.34;;;12.92;91.24
79463;BME280;68931;47.286;18.756;2023-05-16T00:53:48;100198.44;;;12.87;91.46
79463;BME280;68931;47.286;18.756;2023-05-16T00:54:21;100201.81;;;12.89;91.26
79463;BME280;68931;47.286;18.756;2023-05-16T00:54:52;100199.50;;;12.85;91.23
79463;BME280;68931;47.286;18.756;2023-05-16T00:55:23;100203.59;;;12.89;91.22
79463;BME280;68931;47.286;18.756;2023-05-16T00:55:55;100211.59;;;12.87;91.18
79463;BME280;68931;47.286;18.756;2023-05-16T00:56:25;100203.59;;;12.89;91.11
79463;BME280;68931;47.286;18.756;2023-05-16T00:57:02;100207.72;;;12.93;91.42
79463;BME280;68931;47.286;18.756;2023-05-16T00:57:35;100203.38;;;12.92;91.09
79463;BME280;68931;47.286;18.756;2023-05-16T00:58:05;100216.31;;;12.95;91.58
79463;BME280;68931;47.286;18.756;2023-05-16T00:58:36;100215.47;;;12.94;91.54
79463;BME280;68931;47.286;18.756;2023-05-16T00:59:07;100216.31;;;12.95;91.56
79463;BME280;68931;47.286;18.756;2023-05-16T00:59:38;100204.66;;;12.86;91.74
79463;BME280;68931;47.286;18.756;2023-05-16T01:00:09;100216.56;;;12.92;91.66
79463;BME280;68931;47.286;18.756;2023-05-16T01:00:41;100210.44;;;12.91;90.94
79463;BME280;68931;47.286;18.756;2023-05-16T01:01:12;100207.19;;;12.88;91.35
79463;BME280;68931;47.286;18.756;2023-05-16T01:01:48;100207.19;;;12.88;91.02
79463;BME280;68931;47.286;18.756;2023-05-16T01:02:20;100204.75;;;12.85;91.36
79463;BME280;68931;47.286;18.756;2023-05-16T01:02:51;100202.03;;;12.86;90.73
79463;BME280;68931;47.286;18.756;2023-05-16T01:03:26;100199.28;;;12.88;91.05
79463;BME280;68931;47.286;18.756;2023-05-16T01:03:57;100205.38;;;12.88;91.28
79463;BME280;68931;47.286;18.756;2023-05-16T01:04:30;100200.97;;;12.89;91.34
79463;BME280;68931;47.286;18.756;2023-05-16T01:05:02;100201.06;;;12.87;91.50
79463;BME280;68931;47.286;18.756;2023-05-16T01:05:38;100202.88;;;12.87;91.40
79463;BME280;68931;47.286;18.756;2023-05-16T01:06:08;100200.34;;;12.85;91.58
79463;BME280;68931;47.286;18.756;2023-05-16T01:06:39;100204.44;;;12.89;91.42
79463;BME280;68931;47.286;18.756;2023-05-16T01:07:13;100205.38;;;12.88;91.77
79463;BME280;68931;47.286;18.756;2023-05-16T01:07:43;100205.38;;;12.88;91.57
79463;BME280;68931;47.286;18.756;2023-05-16T01:08:14;100195.06;;;12.85;91.33
79463;BME280;68931;47.286;18.756;2023-05-16T01:08:45;100204.66;;;12.86;90.95
79463;BME280;68931;47.286;18.756;2023-05-16T01:09:19;100202.88;;;12.87;91.08
79463;BME280;68931;47.286;18.756;2023-05-16T01:09:49;100206.13;;;12.90;91.09
79463;BME280;68931;47.286;18.756;2023-05-16T01:10:20;100202.66;;;12.90;90.99
79463;BME280;68931;47.286;18.756;2023-05-16T01:13:08;100193.28;;;12.86;91.41
79463;BME280;68931;47.286;18.756;2023-05-16T01:14:11;100202.66;;;12.90;91.48
79463;BME280;68931;47.286;18.756;2023-05-16T01:15:07;100200.13;;;12.88;91.34
79463;BME280;68931;47.286;18.756;2023-05-16T01:16:09;100202.03;;;12.86;91.13
79463;BME280;68931;47.286;18.756;2023-05-16T01:16:45;100193.84;;;12.78;90.99
79463;BME280;68931;47.286;18.756;2023-05-16T01:17:31;100198.03;;;12.80;90.64
79463;BME280;68931;47.286;18.756;2023-05-16T01:18:28;100208.22;;;12.85;91.06
79463;BME280;68931;47.286;18.756;2023-05-16T01:19:12;100202.88;;;12.87;90.96
79463;BME280;68931;47.286;18.756;2023-05-16T01:19:59;100197.59;;;12.87;91.13
79463;BME280;68931;47.286;18.756;2023-05-16T01:21:15;100196.16;;;12.82;91.54
79463;BME280;68931;47.286;18.756;2023-05-16T01:23:40;100194.47;;;12.81;91.38
79463;BME280;68931;47.286;18.756;2023-05-16T01:26:40;100175.75;;;12.73;91.49
79463;BME280;68931;47.286;18.756;2023-05-16T01:27:15;100178.03;;;12.78;91.67
79463;BME280;68931;47.286;18.756;2023-05-16T01:27:51;100178.13;;;12.76;91.56
79463;BME280;68931;47.286;18.756;2023-05-16T01:28:22;100176.13;;;12.80;91.75
79463;BME280;68931;47.286;18.756;2023-05-16T01:28:54;100181.31;;;12.81;91.32
79463;BME280;68931;47.286;18.756;2023-05-16T01:29:25;100176.03;;;12.81;91.81
79463;BME280;68931;47.286;18.756;2023-05-16T01:29:56;100183.84;;;12.83;91.96
79463;BME280;68931;47.286;18.756;2023-05-16T01:30:32;100152.63;;;12.66;91.88
79463;BME280;68931;47.286;18.756;2023-05-16T01:31:04;100181.06;;;12.85;91.74
79463;BME280;68931;47.286;18.756;2023-05-16T01:31:35;100172.56;;;12.81;91.67
79463;BME280;68931;47.286;18.756;2023-05-16T01:32:06;100170.88;;;12.80;91.77
79463;BME280;68931;47.286;18.756;2023-05-16T01:32:37;100179.28;;;12.85;91.77
79463;BME280;68931;47.286;18.756;2023-05-16T01:33:08;100175.94;;;12.83;91.90
79463;BME280;68931;47.286;18.756;2023-05-16T01:33:39;100172.47;;;12.82;91.87
79463;BME280;68931;47.286;18.756;2023-05-16T01:34:10;100176.63;;;12.85;92.18
79463;BME280;68931;47.286;18.756;2023-05-16T01:34:40;100172.31;;;12.84;91.87
79463;BME280;68931;47.286;18.756;2023-05-16T01:35:16;100171.50;;;12.84;91.97
79463;BME280;68931;47.286;18.756;2023-05-16T01:37:35;100165.50;;;12.81;91.95
79463;BME280;68931;47.286;18.756;2023-05-16T01:38:17;100163.72;;;12.82;91.83
79463;BME280;68931;47.286;18.756;2023-05-16T01:39:06;100168.25;;;12.80;91.87
79463;BME280;68931;47.286;18.756;2023-05-16T01:39:55;100170.25;;;12.76;91.74
79463;BME280;68931;47.286;18.756;2023-05-16T01:40:37;100165.72;;;12.78;91.68
79463;BME280;68931;47.286;18.756;2023-05-16T01:41:20;100167.75;;;12.75;90.90
79463;BME280;68931;47.286;18.756;2023-05-16T01:42:07;100161.50;;;12.76;91.23
79463;BME280;68931;47.286;18.756;2023-05-16T01:42:43;100165.81;;;12.77;91.53
79463;BME280;68931;47.286;18.756;2023-05-16T01:43:17;100161.09;;;12.69;91.64
79463;BME280;68931;47.286;18.756;2023-05-16T01:43:54;100161.09;;;12.69;91.68
79463;BME280;68931;47.286;18.756;2023-05-16T01:44:34;100163.28;;;12.75;91.47
79463;BME280;68931;47.286;18.756;2023-05-16T01:45:11;100160.44;;;12.78;91.53
79463;BME280;68931;47.286;18.756;2023-05-16T01:45:54;100166.56;;;12.79;91.51
79463;BME280;68931;47.286;18.756;2023-05-16T01:46:30;100164.28;;;12.74;91.30
79463;BME280;68931;47.286;18.756;2023-05-16T01:47:08;100170.88;;;12.80;91.40
79463;BME280;68931;47.286;18.756;2023-05-16T01:47:44;100170.03;;;12.79;90.94
79463;BME280;68931;47.286;18.756;2023-05-16T01:48:21;100164.97;;;12.76;91.14
79463;BME280;68931;47.286;18.756;2023-05-16T01:49:09;100159.84;;;12.75;90.85
79463;BME280;68931;47.286;18.756;2023-05-16T01:50:24;100162.97;;;12.80;90.98
79463;BME280;68931;47.286;18.756;2023-05-16T01:50:56;100162.97;;;12.80;91.15
79463;BME280;68931;47.286;18.756;2023-05-16T01:51:31;100152.44;;;12.80;90.96
79463;BME280;68931;47.286;18.756;2023-05-16T01:52:18;100156.97;;;12.78;91.29
79463;BME280;68931;47.286;18.756;2023-05-16T01:52:58;100147.63;;;12.74;90.78
79463;BME280;68931;47.286;18.756;2023-05-16T01:53:36;100152.44;;;12.80;90.77
79463;BME280;68931;47.286;18.756;2023-05-16T01:54:11;100148.47;;;12.74;90.95
79463;BME280;68931;47.286;18.756;2023-05-16T01:54:44;100152.91;;;12.74;90.88
79463;BME280;68931;47.286;18.756;2023-05-16T01:55:29;100159.00;;;12.74;91.30
79463;BME280;68931;47.286;18.756;2023-05-16T01:56:02;100164.28;;;12.74;91.11
79463;BME280;68931;47.286;18.756;2023-05-16T01:56:36;100165.81;;;12.77;91.17
79463;BME280;68931;47.286;18.756;2023-05-16T01:57:07;100159.97;;;12.73;91.54
79463;BME280;68931;47.286;18.756;2023-05-16T01:57:42;100164.13;;;12.76;91.17
79463;BME280;68931;47.286;18.756;2023-05-16T01:58:18;100166.91;;;12.74;91.31
79463;BME280;68931;47.286;18.756;2023-05-16T01:58:51;100166.06;;;12.74;91.20
79463;BME280;68931;47.286;18.756;2023-05-16T01:59:26;100156.69;;;12.70;91.34
79463;BME280;68931;47.286;18.756;2023-05-16T01:59:58;100165.31;;;12.72;91.05
79463;BME280;68931;47.286;18.756;2023-05-16T02:00:28;100149.13;;;12.65;91.19
79463;BME280;68931;47.286;18.756;2023-05-16T02:01:03;100169.75;;;12.71;91.16
79463;BME280;68931;47.286;18.756;2023-05-16T02:01:35;100163.84;;;12.68;90.99
79463;BME280;68931;47.286;18.756;2023-05-16T02:02:05;100139.25;;;12.56;91.26
79463;BME280;68931;47.286;18.756;2023-05-16T02:02:36;100163.63;;;12.71;91.40
79463;BME280;68931;47.286;18.756;2023-05-16T02:03:07;100156.78;;;12.68;91.47
79463;BME280;68931;47.286;18.756;2023-05-16T02:03:38;100156.78;;;12.68;91.31
79463;BME280;68931;47.286;18.756;2023-05-16T02:04:08;100155.75;;;12.71;91.62
79463;BME280;68931;47.286;18.756;2023-05-16T02:04:39;100160.16;;;12.70;91.64
79463;BME280;68931;47.286;18.756;2023-05-16T02:05:10;100137.03;;;12.63;91.80
79463;BME280;68931;47.286;18.756;2023-05-16T02:05:40;100158.88;;;12.76;91.81
79463;BME280;68931;47.286;18.756;2023-05-16T02:06:11;100157.22;;;12.75;91.79
79463;BME280;68931;47.286;18.756;2023-05-16T02:06:42;100167.50;;;12.78;91.72
79463;BME280;68931;47.286;18.756;2023-05-16T02:07:13;100162.47;;;12.75;91.88
79463;BME280;68931;47.286;18.756;2023-05-16T02:07:44;100165.94;;;12.75;91.49
79463;BME280;68931;47.286;18.756;2023-05-16T02:08:15;100149.63;;;12.70;91.75
79463;BME280;68931;47.286;18.756;2023-05-16T02:08:46;100163.19;;;12.77;91.77
79463;BME280;68931;47.286;18.756;2023-05-16T02:09:16;100152.16;;;12.72;91.66
79463;BME280;68931;47.286;18.756;2023-05-16T02:09:47;100160.66;;;12.75;91.41
79463;BME280;68931;47.286;18.756;2023-05-16T02:10:20;100151.94;;;12.75;91.42
79463;BME280;68931;47.286;18.756;2023-05-16T02:10:51;100149.53;;;12.72;91.34
79463;BME280;68931;47.286;18.756;2023-05-16T02:11:22;100147.75;;;12.72;91.11
79463;BME280;68931;47.286;18.756;2023-05-16T02:11:53;100148.59;;;12.73;91.24
79463;BME280;68931;47.286;18.756;2023-05-16T02:12:24;100149.53;;;12.72;91.44
79463;BME280;68931;47.286;18.756;2023-05-16T02:12:55;100145.22;;;12.71;91.15
79463;BME280;68931;47.286;18.756;2023-05-16T02:13:26;100146.91;;;12.72;90.95
79463;BME280;68931;47.286;18.756;2023-05-16T02:13:56;100142.47;;;12.72;91.18
79463;BME280;68931;47.286;18.756;2023-05-16T02:14:27;100139.09;;;12.70;91.04
79463;BME280;68931;47.286;18.756;2023-05-16T02:14:58;100130.47;;;12.68;91.15
79463;BME280;68931;47.286;18.756;2023-05-16T02:15:29;100131.94;;;12.72;91.11
79463;BME280;68931;47.286;18.756;2023-05-16T02:16:00;100136.97;;;12.75;91.44
79463;BME280;68931;47.286;18.756;2023-05-16T02:16:30;100127.53;;;12.73;91.22
79463;BME280;68931;47.286;18.756;2023-05-16T02:17:01;100128.97;;;12.77;91.01
79463;BME280;68931;47.286;18.756;2023-05-16T02:17:37;100132.69;;;12.74;91.16
79463;BME280;68931;47.286;18.756;2023-05-16T02:18:08;100124.78;;;12.74;91.41
79463;BME280;68931;47.286;18.756;2023-05-16T02:18:38;100124.78;;;12.74;91.37
79463;BME280;68931;47.286;18.756;2023-05-16T02:19:09;100125.84;;;12.72;91.32
79463;BME280;68931;47.286;18.756;2023-05-16T02:19:40;100125.94;;;12.70;91.26
79463;BME280;68931;47.286;18.756;2023-05-16T02:20:11;100120.69;;;12.70;91.36
79463;BME280;68931;47.286;18.756;2023-05-16T02:20:42;100124.50;;;12.66;91.32
79463;BME280;68931;47.286;18.756;2023-05-16T02:21:13;100118.25;;;12.67;91.34
79463;BME280;68931;47.286;18.756;2023-05-16T02:21:43;100121.88;;;12.66;91.50
79463;BME280;68931;47.286;18.756;2023-05-16T02:22:14;100116.59;;;12.66;91.18
79463;BME280;68931;47.286;18.756;2023-05-16T02:22:45;100115.75;;;12.66;91.18
79463;BME280;68931;47.286;18.756;2023-05-16T02:23:16;100115.75;;;12.66;91.17
79463;BME280;68931;47.286;18.756;2023-05-16T02:23:47;100110.59;;;12.64;91.25
79463;BME280;68931;47.286;18.756;2023-05-16T02:24:18;100105.34;;;12.64;91.68
79463;BME280;68931;47.286;18.756;2023-05-16T02:24:48;100113.34;;;12.63;91.23
79463;BME280;68931;47.286;18.756;2023-05-16T02:25:19;100114.09;;;12.65;91.17
79463;BME280;68931;47.286;18.756;2023-05-16T02:25:50;100104.72;;;12.61;91.13
79463;BME280;68931;47.286;18.756;2023-05-16T02:26:21;100108.19;;;12.61;91.23
79463;BME280;68931;47.286;18.756;2023-05-16T02:26:51;100111.75;;;12.60;91.20
79463;BME280;68931;47.286;18.756;2023-05-16T02:27:22;100118.06;;;12.58;91.32
79463;BME280;68931;47.286;18.756;2023-05-16T02:27:53;100120.94;;;12.55;91.17
79463;BME280;68931;47.286;18.756;2023-05-16T02:28:23;100126.31;;;12.53;91.29
79463;BME280;68931;47.286;18.756;2023-05-16T02:28:54;100114.00;;;12.54;91.28
79463;BME280;68931;47.286;18.756;2023-05-16T02:29:25;100123.59;;;12.55;91.16
79463;BME280;68931;47.286;18.756;2023-05-16T02:29:55;100112.22;;;12.54;91.66
79463;BME280;68931;47.286;18.756;2023-05-16T02:30:32;100122.63;;;12.56;91.22
79463;BME280;68931;47.286;18.756;2023-05-16T02:31:02;100128.00;;;12.54;91.68
79463;BME280;68931;47.286;18.756;2023-05-16T02:31:34;100119.56;;;12.49;91.42
79463;BME280;68931;47.286;18.756;2023-05-16T02:32:05;100127.38;;;12.51;91.68
79463;BME280;68931;47.286;18.756;2023-05-16T02:32:36;100131.09;;;12.48;91.55
79463;BME280;68931;47.286;18.756;2023-05-16T02:33:06;100130.56;;;12.43;91.48
79463;BME280;68931;47.286;18.756;2023-05-16T02:33:37;100123.09;;;12.37;91.69
79463;BME280;68931;47.286;18.756;2023-05-16T02:34:08;100127.91;;;12.43;91.73
79463;BME280;68931;47.286;18.756;2023-05-16T02:34:38;100124.69;;;12.39;91.85
79463;BME280;68931;47.286;18.756;2023-05-16T02:35:09;100126.47;;;12.39;92.21
79463;BME280;68931;47.286;18.756;2023-05-16T02:35:40;100123.09;;;12.37;92.15
79463;BME280;68931;47.286;18.756;2023-05-16T02:36:11;100131.84;;;12.37;92.06
79463;BME280;68931;47.286;18.756;2023-05-16T02:36:44;100145.38;;;12.44;91.86
79463;BME280;68931;47.286;18.756;2023-05-16T02:37:15;100143.69;;;12.43;91.68
79463;BME280;68931;47.286;18.756;2023-05-16T02:37:48;100143.81;;;12.41;91.96
79463;BME280;68931;47.286;18.756;2023-05-16T02:38:22;100145.38;;;12.44;91.66
79463;BME280;68931;47.286;18.756;2023-05-16T02:38:53;100154.88;;;12.47;91.94
79463;BME280;68931;47.286;18.756;2023-05-16T02:39:24;100140.56;;;12.38;91.68
79463;BME280;68931;47.286;18.756;2023-05-16T02:39:54;100159.72;;;12.40;91.98
79463;BME280;68931;47.286;18.756;2023-05-16T02:40:25;100151.09;;;12.38;92.03
79463;BME280;68931;47.286;18.756;2023-05-16T02:40:56;100158.75;;;12.41;91.95
79463;BME280;68931;47.286;18.756;2023-05-16T02:41:26;100159.50;;;12.43;92.00
79463;BME280;68931;47.286;18.756;2023-05-16T02:41:57;100159.50;;;12.43;92.20
79463;BME280;68931;47.286;18.756;2023-05-16T02:42:28;100161.38;;;12.41;92.10
79463;BME280;68931;47.286;18.756;2023-05-16T02:42:58;100158.88;;;12.39;92.22
79463;BME280;68931;47.286;18.756;2023-05-16T02:43:29;100154.56;;;12.38;91.94
79463;BME280;68931;47.286;18.756;2023-05-16T02:44:00;100155.50;;;12.37;92.17
79463;BME280;68931;47.286;18.756;2023-05-16T02:44:36;100160.44;;;12.42;91.88
79463;BME280;68931;47.286;18.756;2023-05-16T02:45:07;100157.69;;;12.43;92.01
79463;BME280;68931;47.286;18.756;2023-05-16T02:45:38;100161.06;;;12.46;91.66
79463;BME280;68931;47.286;18.756;2023-05-16T02:46:27;100149.69;;;12.45;91.81
79463;BME280;68931;47.286;18.756;2023-05-16T02:46:59;100152.22;;;12.47;92.28
79463;BME280;68931;47.286;18.756;2023-05-16T02:47:30;100140.34;;;12.41;91.97
79463;BME280;68931;47.286;18.756;2023-05-16T02:48:01;100140.75;;;12.48;91.85
79463;BME280;68931;47.286;18.756;2023-05-16T02:48:31;100125.38;;;12.41;92.09
79463;BME280;68931;47.286;18.756;2023-05-16T02:49:02;100123.50;;;12.43;92.27
79463;BME280;68931;47.286;18.756;2023-05-16T02:49:33;100118.13;;;12.45;92.43
79463;BME280;68931;47.286;18.756;2023-05-16T02:50:04;100111.19;;;12.44;92.20
79463;BME280;68931;47.286;18.756;2023-05-16T02:50:34;100110.34;;;12.43;92.29
79463;BME280;68931;47.286;18.756;2023-05-16T02:51:05;100111.91;;;12.46;92.27
79463;BME280;68931;47.286;18.756;2023-05-16T02:51:36;100118.13;;;12.45;92.51
79463;BME280;68931;47.286;18.756;2023-05-16T02:52:06;100108.66;;;12.42;92.27
79463;BME280;68931;47.286;18.756;2023-05-16T02:52:37;100114.56;;;12.46;92.18
79463;BME280;68931;47.286;18.756;2023-05-16T02:53:11;100105.81;;;12.46;92.37
79463;BME280;68931;47.286;18.756;2023-05-16T02:53:41;100110.13;;;12.47;92.24
79463;BME280;68931;47.286;18.756;2023-05-16T02:54:12;100105.94;;;12.44;92.13
79463;BME280;68931;47.286;18.756;2023-05-16T02:54:42;100101.50;;;12.44;92.30
79463;BME280;68931;47.286;18.756;2023-05-16T02:55:13;100093.63;;;12.44;92.21
79463;BME280;68931;47.286;18.756;2023-05-16T02:55:44;100101.59;;;12.43;92.00
79463;BME280;68931;47.286;18.756;2023-05-16T02:56:15;100099.22;;;12.40;92.33
79463;BME280;68931;47.286;18.756;2023-05-16T02:56:46;100100.88;;;12.41;92.26
79463;BME280;68931;47.286;18.756;2023-05-16T02:57:16;100102.66;;;12.40;92.24
79463;BME280;68931;47.286;18.756;2023-05-16T02:57:50;100103.50;;;12.41;92.38
79463;BME280;68931;47.286;18.756;2023-05-16T02:58:21;100096.78;;;12.37;91.91
79463;BME280;68931;47.286;18.756;2023-05-16T02:58:53;100107.91;;;12.40;92.15